Time;durP1;ratioP1;P1;durP2;ratioP2;P2;SDS_P1;SDS_P2;PMS_P1;PMS_P2;Temp;Humidity;BMP_temperature;BMP_pressure;BME280_temperature;BME280_humidity;BME280_pressure;Samples;Min_cycle;Max_cycle;Signal;HPM_P1;HPM_P2
2024/03/27 00:01:31;;;;;;;4.72;2.97;;;;;;;;;;5097187;28;20397;-79
2024/03/27 00:03:57;;;;;;;4.82;2.70;;;;;;;;;;5096482;28;20868;-79
2024/03/27 00:06:23;;;;;;;3.90;2.90;;;;;;;;;;5097369;28;20420;-79
2024/03/27 00:08:49;;;;;;;4.85;2.85;;;;;;;;;;5097052;28;20927;-79
2024/03/27 00:11:16;;;;;;;3.85;2.80;;;;;;;;;;5096740;28;20725;-79
2024/03/27 00:13:42;;;;;;;3.63;2.67;;;;;;;;;;5097062;28;20864;-79
2024/03/27 00:16:08;;;;;;;3.92;2.70;;;;;;;;;;5096913;28;20393;-79
2024/03/27 00:18:34;;;;;;;3.28;2.45;;;;;;;;;;5096257;28;20489;-79
2024/03/27 00:21:00;;;;;;;3.50;2.47;;;;;;;;;;5096520;28;20467;-79
2024/03/27 00:23:26;;;;;;;5.07;2.53;;;;;;;;;;5096288;28;20384;-79
2024/03/27 00:25:56;;;;;;;4.40;2.33;;;;;;;;;;5097454;28;20380;-79
2024/03/27 00:28:22;;;;;;;4.75;2.80;;;;;;;;;;5095546;28;20890;-79
2024/03/27 00:30:49;;;;;;;4.28;2.30;;;;;;;;;;5096569;28;20436;-79
2024/03/27 00:33:15;;;;;;;2.72;2.22;;;;;;;;;;5096164;28;20406;-79
2024/03/27 00:35:42;;;;;;;3.60;2.10;;;;;;;;;;5096188;28;20443;-79
2024/03/27 00:38:08;;;;;;;4.63;2.50;;;;;;;;;;5096146;28;20423;-79
2024/03/27 00:40:36;;;;;;;3.58;2.20;;;;;;;;;;5095919;28;21473;-79
2024/03/27 00:43:02;;;;;;;3.50;2.25;;;;;;;;;;5096109;28;20393;-79
2024/03/27 00:45:30;;;;;;;5.67;2.60;;;;;;;;;;5096084;28;20439;-79
2024/03/27 00:47:56;;;;;;;3.67;2.50;;;;;;;;;;5095943;28;20428;-79
2024/03/27 00:50:22;;;;;;;3.50;2.03;;;;;;;;;;5096254;28;20374;-79
2024/03/27 00:52:48;;;;;;;3.10;2.30;;;;;;;;;;5078426;28;20875;-79
2024/03/27 00:55:14;;;;;;;3.30;2.42;;;;;;;;;;5097310;28;20470;-79
2024/03/27 00:57:40;;;;;;;3.85;2.13;;;;;;;;;;5096451;28;20827;-79
2024/03/27 01:00:06;;;;;;;3.63;2.10;;;;;;;;;;5096791;28;20456;-79
2024/03/27 01:02:32;;;;;;;3.40;2.28;;;;;;;;;;5097560;28;20374;-79
2024/03/27 01:04:58;;;;;;;3.35;2.22;;;;;;;;;;5097034;28;21091;-79
2024/03/27 01:07:24;;;;;;;4.28;2.08;;;;;;;;;;5096301;28;20382;-79
2024/03/27 01:09:50;;;;;;;3.42;2.20;;;;;;;;;;5078022;28;20378;-79
2024/03/27 01:12:16;;;;;;;3.45;2.10;;;;;;;;;;5096923;28;20489;-79
2024/03/27 01:14:43;;;;;;;3.50;2.15;;;;;;;;;;5096832;28;20390;-79
2024/03/27 01:17:09;;;;;;;2.85;1.95;;;;;;;;;;5097152;28;20382;-79
2024/03/27 01:19:35;;;;;;;4.23;2.10;;;;;;;;;;5096098;28;20904;-79
2024/03/27 01:22:01;;;;;;;3.13;2.22;;;;;;;;;;5096581;28;20410;-79
2024/03/27 01:24:27;;;;;;;2.97;2.20;;;;;;;;;;5095784;28;20411;-79
2024/03/27 01:26:56;;;;;;;3.83;2.22;;;;;;;;;;5095720;28;20767;-79
2024/03/27 01:29:22;;;;;;;3.15;1.90;;;;;;;;;;5095635;28;20385;-79
2024/03/27 01:31:48;;;;;;;2.35;2.10;;;;;;;;;;5095626;28;20417;-79
2024/03/27 01:34:14;;;;;;;3.92;2.22;;;;;;;;;;5078742;28;20386;-79
2024/03/27 01:36:40;;;;;;;2.60;2.07;;;;;;;;;;5095629;28;20438;-79
2024/03/27 01:39:06;;;;;;;3.47;1.88;;;;;;;;;;5096323;28;20413;-79
2024/03/27 01:41:32;;;;;;;4.30;2.10;;;;;;;;;;5096501;28;20381;-79
2024/03/27 01:43:58;;;;;;;3.03;1.77;;;;;;;;;;5097326;28;20374;-79
2024/03/27 01:46:25;;;;;;;2.05;1.85;;;;;;;;;;5095811;28;20463;-79
2024/03/27 01:48:51;;;;;;;3.37;1.90;;;;;;;;;;5094471;28;20382;-79
2024/03/27 01:51:18;;;;;;;2.42;1.98;;;;;;;;;;5095043;28;20523;-79
2024/03/27 01:53:44;;;;;;;2.30;2.07;;;;;;;;;;5094859;28;20420;-79
2024/03/27 01:56:10;;;;;;;3.25;2.05;;;;;;;;;;5095166;28;20427;-79
2024/03/27 01:58:36;;;;;;;3.53;2.40;;;;;;;;;;5094720;28;20402;-79
2024/03/27 02:01:02;;;;;;;2.92;2.05;;;;;;;;;;5094827;28;20384;-79
2024/03/27 02:03:28;;;;;;;4.72;2.30;;;;;;;;;;5095411;28;20362;-79
2024/03/27 02:05:55;;;;;;;3.15;2.38;;;;;;;;;;5094805;28;20400;-79
2024/03/27 02:08:21;;;;;;;2.78;2.35;;;;;;;;;;5094459;28;20698;-79
2024/03/27 02:10:47;;;;;;;2.83;2.38;;;;;;;;;;5094812;28;20435;-79
2024/03/27 02:13:13;;;;;;;4.10;3.20;;;;;;;;;;5095000;28;20389;-79
2024/03/27 02:15:39;;;;;;;3.70;2.90;;;;;;;;;;5095360;28;20409;-79
2024/03/27 02:18:05;;;;;;;4.15;3.35;;;;;;;;;;5094555;28;20855;-79
2024/03/27 02:20:31;;;;;;;3.78;3.30;;;;;;;;;;5095052;28;20397;-79
2024/03/27 02:23:01;;;;;;;3.97;3.17;;;;;;;;;;5095011;28;20380;-79
2024/03/27 02:25:29;;;;;;;3.85;3.13;;;;;;;;;;5094995;28;20390;-79
2024/03/27 02:27:55;;;;;;;5.57;3.17;;;;;;;;;;5094803;28;20457;-79
2024/03/27 02:30:21;;;;;;;4.15;2.92;;;;;;;;;;5092681;28;20425;-79
2024/03/27 02:32:47;;;;;;;3.78;3.30;;;;;;;;;;5093727;28;20398;-79
2024/03/27 02:35:14;;;;;;;4.88;3.90;;;;;;;;;;5094764;28;20394;-79
2024/03/27 02:37:40;;;;;;;5.40;3.63;;;;;;;;;;5112075;28;20384;-79
2024/03/27 02:40:06;;;;;;;3.58;3.20;;;;;;;;;;5115060;28;20404;-79
2024/03/27 02:42:32;;;;;;;3.53;3.03;;;;;;;;;;5115043;28;20511;-79
2024/03/27 02:44:58;;;;;;;3.60;3.00;;;;;;;;;;5114923;28;20430;-79
2024/03/27 02:47:24;;;;;;;3.92;3.15;;;;;;;;;;5115417;28;20395;-79
2024/03/27 02:49:50;;;;;;;3.00;2.70;;;;;;;;;;5115175;28;20818;-79
2024/03/27 02:52:16;;;;;;;3.67;2.50;;;;;;;;;;5114790;28;20380;-79
2024/03/27 02:54:42;;;;;;;2.83;2.30;;;;;;;;;;5114918;28;20891;-79
2024/03/27 02:57:08;;;;;;;3.00;2.20;;;;;;;;;;5114535;28;20376;-79
2024/03/27 02:59:34;;;;;;;2.40;2.10;;;;;;;;;;5117173;28;20485;-79
2024/03/27 03:02:00;;;;;;;2.70;2.08;;;;;;;;;;5118502;28;20765;-79
2024/03/27 03:04:26;;;;;;;2.83;2.55;;;;;;;;;;5118066;28;20382;-79
2024/03/27 03:06:51;;;;;;;6.03;2.67;;;;;;;;;;5119007;28;20375;-79
2024/03/27 03:09:18;;;;;;;3.80;2.97;;;;;;;;;;5118330;28;20396;-79
2024/03/27 03:11:44;;;;;;;3.97;3.50;;;;;;;;;;5118347;28;20380;-79
2024/03/27 03:14:10;;;;;;;4.55;3.92;;;;;;;;;;5118267;28;20377;-79
2024/03/27 03:16:36;;;;;;;3.70;3.25;;;;;;;;;;5118024;28;20372;-79
2024/03/27 03:19:02;;;;;;;4.82;3.50;;;;;;;;;;5117554;28;20724;-79
2024/03/27 03:21:28;;;;;;;4.17;3.77;;;;;;;;;;5117933;28;20373;-79
2024/03/27 03:23:54;;;;;;;3.85;3.47;;;;;;;;;;5118226;28;20442;-79
2024/03/27 03:26:20;;;;;;;6.45;4.68;;;;;;;;;;5118449;28;20701;-79
2024/03/27 03:28:46;;;;;;;4.32;3.92;;;;;;;;;;5117947;28;20405;-79
2024/03/27 03:31:17;;;;;;;4.20;3.80;;;;;;;;;;5118225;28;20412;-79
2024/03/27 03:33:42;;;;;;;4.20;3.80;;;;;;;;;;5118372;28;20429;-79
2024/03/27 03:36:08;;;;;;;5.38;3.25;;;;;;;;;;5117831;28;20384;-79
2024/03/27 03:38:34;;;;;;;4.60;3.70;;;;;;;;;;5114949;28;20403;-79
2024/03/27 03:41:01;;;;;;;3.50;3.20;;;;;;;;;;5118164;28;20421;-79
2024/03/27 03:43:28;;;;;;;4.00;3.30;;;;;;;;;;5118253;28;20514;-79
2024/03/27 03:45:54;;;;;;;4.65;4.25;;;;;;;;;;5117656;28;20381;-79
2024/03/27 03:48:23;;;;;;;5.13;4.50;;;;;;;;;;5117937;28;20761;-79
2024/03/27 03:50:49;;;;;;;4.82;4.43;;;;;;;;;;5117215;28;20380;-79
2024/03/27 03:53:15;;;;;;;5.97;5.10;;;;;;;;;;5118568;28;20422;-79
2024/03/27 03:55:41;;;;;;;5.90;5.40;;;;;;;;;;5117250;28;20892;-79
2024/03/27 03:58:07;;;;;;;6.20;5.63;;;;;;;;;;5117065;28;20376;-79
2024/03/27 04:00:33;;;;;;;5.28;4.88;;;;;;;;;;5117026;28;20940;-79
2024/03/27 04:03:00;;;;;;;5.60;4.97;;;;;;;;;;5117540;28;20391;-79
2024/03/27 04:05:26;;;;;;;6.00;5.40;;;;;;;;;;5117400;28;20408;-79
2024/03/27 04:07:52;;;;;;;6.05;5.40;;;;;;;;;;5098601;28;20374;-79
2024/03/27 04:10:18;;;;;;;5.70;5.20;;;;;;;;;;5096400;28;20378;-79
2024/03/27 04:12:43;;;;;;;5.53;4.93;;;;;;;;;;5097290;28;20378;-79
2024/03/27 04:15:09;;;;;;;5.22;4.72;;;;;;;;;;5097023;28;20422;-79
2024/03/27 04:17:35;;;;;;;5.07;4.57;;;;;;;;;;5096742;28;20373;-79
2024/03/27 04:20:06;;;;;;;4.72;4.25;;;;;;;;;;5096915;28;20413;-79
2024/03/27 04:22:32;;;;;;;5.10;4.68;;;;;;;;;;5096546;28;20367;-79
2024/03/27 04:24:58;;;;;;;5.22;4.72;;;;;;;;;;5096603;28;20389;-79
2024/03/27 04:27:24;;;;;;;6.78;6.18;;;;;;;;;;5096023;28;20386;-79
2024/03/27 04:29:54;;;;;;;6.50;5.90;;;;;;;;;;5096009;28;20374;-79
2024/03/27 04:32:20;;;;;;;7.05;6.35;;;;;;;;;;5096145;28;20406;-79
2024/03/27 04:34:46;;;;;;;6.65;6.00;;;;;;;;;;5096446;28;20402;-79
2024/03/27 04:37:12;;;;;;;6.00;5.50;;;;;;;;;;5096569;28;20435;-79
2024/03/27 04:39:38;;;;;;;5.97;5.20;;;;;;;;;;5095679;28;20416;-79
2024/03/27 04:42:04;;;;;;;5.78;5.28;;;;;;;;;;5096929;28;20374;-79
2024/03/27 04:44:30;;;;;;;7.70;6.30;;;;;;;;;;5096770;28;20379;-79
2024/03/27 04:46:56;;;;;;;6.00;5.50;;;;;;;;;;5096374;28;20408;-79
2024/03/27 04:49:22;;;;;;;5.68;5.18;;;;;;;;;;5096470;28;20370;-79
2024/03/27 04:51:48;;;;;;;6.30;5.70;;;;;;;;;;5096751;28;20401;-79
2024/03/27 04:54:14;;;;;;;6.13;5.53;;;;;;;;;;5096172;28;20389;-79
2024/03/27 04:56:39;;;;;;;6.05;4.72;;;;;;;;;;5096172;28;20370;-79
2024/03/27 04:59:05;;;;;;;5.28;4.47;;;;;;;;;;5095854;28;20405;-79
2024/03/27 05:01:31;;;;;;;4.70;4.20;;;;;;;;;;5096567;28;20381;-79
2024/03/27 05:03:57;;;;;;;4.03;3.73;;;;;;;;;;5095998;28;20784;-79
2024/03/27 05:06:24;;;;;;;3.90;3.60;;;;;;;;;;5093657;28;20374;-79
2024/03/27 05:08:50;;;;;;;3.40;3.10;;;;;;;;;;5088153;28;20872;-79
2024/03/27 05:11:16;;;;;;;3.90;3.00;;;;;;;;;;5086553;28;20401;-79
2024/03/27 05:13:42;;;;;;;3.42;2.88;;;;;;;;;;5094717;28;20736;-79
2024/03/27 05:16:08;;;;;;;2.95;2.65;;;;;;;;;;5095662;28;20414;-79
2024/03/27 05:18:34;;;;;;;3.80;2.90;;;;;;;;;;5096401;28;20854;-79
2024/03/27 05:21:00;;;;;;;3.03;2.60;;;;;;;;;;5096327;28;20378;-79
2024/03/27 05:23:26;;;;;;;2.60;2.30;;;;;;;;;;5095138;28;20514;-79
2024/03/27 05:25:55;;;;;;;2.90;2.30;;;;;;;;;;5095860;28;20394;-79
2024/03/27 05:28:21;;;;;;;4.20;2.20;;;;;;;;;;5096453;28;20370;-79
2024/03/27 05:30:47;;;;;;;2.40;2.17;;;;;;;;;;5096302;28;20455;-79
2024/03/27 05:33:13;;;;;;;2.33;2.13;;;;;;;;;;5095873;28;20527;-79
2024/03/27 05:35:39;;;;;;;2.40;2.08;;;;;;;;;;5095728;28;20389;-79
2024/03/27 05:38:05;;;;;;;2.25;2.05;;;;;;;;;;5095805;28;20872;-79
2024/03/27 05:40:32;;;;;;;2.53;1.92;;;;;;;;;;5096252;28;20463;-79
2024/03/27 05:42:59;;;;;;;2.75;2.10;;;;;;;;;;5095529;28;20370;-79
2024/03/27 05:45:25;;;;;;;2.30;2.10;;;;;;;;;;5095429;28;20378;-79
2024/03/27 05:47:51;;;;;;;2.97;2.20;;;;;;;;;;5095357;28;20957;-79
2024/03/27 05:50:18;;;;;;;3.00;2.35;;;;;;;;;;5095681;28;20374;-79
2024/03/27 05:52:44;;;;;;;4.13;3.13;;;;;;;;;;5095067;28;20413;-79
2024/03/27 05:55:10;;;;;;;3.57;3.13;;;;;;;;;;5096097;28;20378;-79
2024/03/27 05:57:36;;;;;;;3.25;2.95;;;;;;;;;;5095402;28;20901;-79
2024/03/27 06:00:07;;;;;;;5.43;3.10;;;;;;;;;;5094599;28;20493;-80
2024/03/27 06:02:33;;;;;;;3.20;2.83;;;;;;;;;;5095377;28;20449;-79
2024/03/27 06:05:00;;;;;;;3.53;2.50;;;;;;;;;;5095308;28;20413;-80
2024/03/27 06:07:25;;;;;;;3.60;2.58;;;;;;;;;;5096029;28;20381;-79
2024/03/27 06:09:51;;;;;;;3.38;2.38;;;;;;;;;;5095973;28;20378;-79
2024/03/27 06:12:17;;;;;;;3.42;2.97;;;;;;;;;;5095455;28;20393;-80
2024/03/27 06:14:43;;;;;;;3.40;2.78;;;;;;;;;;5096081;28;20381;-79
2024/03/27 06:17:09;;;;;;;3.95;3.15;;;;;;;;;;5095163;28;20721;-80
2024/03/27 06:19:35;;;;;;;5.22;4.15;;;;;;;;;;5094967;28;20421;-79
2024/03/27 06:22:01;;;;;;;4.70;3.75;;;;;;;;;;5094544;28;20527;-79
2024/03/27 06:24:27;;;;;;;4.30;3.90;;;;;;;;;;5094684;28;20423;-79
2024/03/27 06:26:53;;;;;;;4.00;3.30;;;;;;;;;;5095759;28;20382;-79
2024/03/27 06:29:19;;;;;;;4.68;3.22;;;;;;;;;;5096590;28;20439;-79
2024/03/27 06:31:45;;;;;;;4.93;3.60;;;;;;;;;;5095707;28;20496;-79
2024/03/27 06:34:12;;;;;;;4.20;3.80;;;;;;;;;;5098184;28;20389;-79
2024/03/27 06:36:38;;;;;;;6.25;4.90;;;;;;;;;;5100362;28;20378;-79
2024/03/27 06:39:09;;;;;;;4.15;3.75;;;;;;;;;;5100552;28;20783;-79
2024/03/27 06:41:35;;;;;;;4.53;3.87;;;;;;;;;;5099862;28;20744;-79
2024/03/27 06:44:02;;;;;;;5.90;4.00;;;;;;;;;;5099786;28;20374;-79
2024/03/27 06:46:29;;;;;;;4.28;3.42;;;;;;;;;;5099532;28;20515;-79
2024/03/27 06:49:07;;;;;;;4.85;3.50;;;;;;;;;;5100374;28;20370;-79
2024/03/27 06:51:33;;;;;;;5.22;3.20;;;;;;;;;;5099630;28;20388;-79
2024/03/27 06:53:59;;;;;;;5.05;3.50;;;;;;;;;;5099428;28;20811;-79
2024/03/27 06:56:25;;;;;;;4.40;2.97;;;;;;;;;;5099131;28;20787;-79
2024/03/27 06:58:51;;;;;;;3.80;2.60;;;;;;;;;;5099145;28;20410;-79
2024/03/27 07:01:17;;;;;;;4.20;3.00;;;;;;;;;;5098290;28;20436;-79
2024/03/27 07:03:43;;;;;;;3.42;2.50;;;;;;;;;;5099238;28;20402;-79
2024/03/27 07:06:09;;;;;;;4.00;2.92;;;;;;;;;;5097691;28;20798;-79
2024/03/27 07:08:35;;;;;;;3.08;2.72;;;;;;;;;;5097344;28;20402;-79
2024/03/27 07:11:02;;;;;;;5.70;2.92;;;;;;;;;;5096299;28;20381;-79
2024/03/27 07:13:28;;;;;;;3.10;2.80;;;;;;;;;;5098096;28;20381;-79
2024/03/27 07:15:54;;;;;;;3.95;2.85;;;;;;;;;;5098467;28;20394;-79
2024/03/27 07:18:21;;;;;;;3.50;2.83;;;;;;;;;;5097877;28;20886;-79
2024/03/27 07:20:53;;;;;;;5.82;2.95;;;;;;;;;;5098051;28;20383;-79
2024/03/27 07:23:19;;;;;;;3.47;2.47;;;;;;;;;;5098201;28;20374;-79
2024/03/27 07:25:45;;;;;;;5.00;2.50;;;;;;;;;;5098142;28;20465;-79
2024/03/27 07:28:11;;;;;;;4.78;2.85;;;;;;;;;;5096091;28;20412;-79
2024/03/27 07:30:37;;;;;;;4.07;2.55;;;;;;;;;;5097245;28;20378;-79
2024/03/27 07:33:04;;;;;;;3.20;2.58;;;;;;;;;;5097910;28;20864;-80
2024/03/27 07:35:30;;;;;;;4.03;2.70;;;;;;;;;;5099390;28;20388;-79
2024/03/27 07:37:58;;;;;;;4.40;2.80;;;;;;;;;;5098684;28;20469;-80
2024/03/27 07:40:24;;;;;;;3.25;2.60;;;;;;;;;;5098064;28;20410;-79
2024/03/27 07:42:50;;;;;;;4.63;2.47;;;;;;;;;;5098410;28;20381;-80
2024/03/27 07:45:17;;;;;;;4.53;2.50;;;;;;;;;;5097290;28;20428;-79
2024/03/27 07:47:43;;;;;;;3.93;2.27;;;;;;;;;;5098370;28;20391;-79
2024/03/27 07:50:10;;;;;;;4.68;2.03;;;;;;;;;;5099097;28;20386;-79
2024/03/27 07:52:36;;;;;;;2.88;2.00;;;;;;;;;;5099118;28;20381;-79
2024/03/27 07:55:02;;;;;;;2.85;1.85;;;;;;;;;;5097227;28;20382;-79
2024/03/27 07:57:28;;;;;;;3.10;1.50;;;;;;;;;;5099154;28;20378;-79
2024/03/27 07:59:54;;;;;;;1.85;1.33;;;;;;;;;;5099805;28;20405;-79
2024/03/27 08:02:20;;;;;;;2.30;1.30;;;;;;;;;;5098977;28;20453;-79
2024/03/27 08:04:46;;;;;;;3.10;1.45;;;;;;;;;;5098870;28;20423;-79
2024/03/27 08:07:12;;;;;;;6.35;1.73;;;;;;;;;;5099802;28;20381;-80
2024/03/27 08:09:38;;;;;;;1.50;1.27;;;;;;;;;;5099236;28;20378;-80
2024/03/27 08:12:04;;;;;;;1.92;1.20;;;;;;;;;;5099667;28;20460;-79
2024/03/27 08:14:31;;;;;;;1.90;1.33;;;;;;;;;;5099080;28;20389;-79
2024/03/27 08:16:57;;;;;;;2.97;1.35;;;;;;;;;;5099607;28;20851;-79
2024/03/27 08:19:22;;;;;;;5.38;1.63;;;;;;;;;;5099019;28;20576;-79
2024/03/27 08:21:48;;;;;;;2.78;1.70;;;;;;;;;;5098860;28;20379;-79
2024/03/27 08:24:15;;;;;;;5.40;2.03;;;;;;;;;;5099376;28;20463;-79
2024/03/27 08:26:41;;;;;;;4.88;2.20;;;;;;;;;;5099424;28;20374;-79
2024/03/27 08:29:07;;;;;;;2.70;2.13;;;;;;;;;;5098398;28;20371;-79
2024/03/27 08:31:33;;;;;;;4.88;2.78;;;;;;;;;;5096053;28;20454;-79
2024/03/27 08:33:59;;;;;;;3.10;2.47;;;;;;;;;;5098384;28;20386;-79
2024/03/27 08:36:25;;;;;;;5.43;3.10;;;;;;;;;;5099308;28;20384;-79
2024/03/27 08:38:51;;;;;;;4.28;2.83;;;;;;;;;;5098845;28;20489;-79
2024/03/27 08:41:17;;;;;;;4.43;3.40;;;;;;;;;;5098087;28;20370;-79
2024/03/27 08:43:43;;;;;;;4.10;3.10;;;;;;;;;;5098577;28;20461;-79
2024/03/27 08:46:09;;;;;;;4.53;3.33;;;;;;;;;;5098408;28;20432;-79
2024/03/27 08:48:35;;;;;;;5.45;2.80;;;;;;;;;;5099122;28;20388;-79
2024/03/27 08:51:01;;;;;;;6.47;2.90;;;;;;;;;;5098397;28;20370;-79
2024/03/27 08:53:27;;;;;;;4.20;2.93;;;;;;;;;;5098104;28;20374;-79
2024/03/27 08:55:53;;;;;;;4.20;3.20;;;;;;;;;;5097950;28;20859;-79
2024/03/27 08:58:19;;;;;;;3.72;3.25;;;;;;;;;;5098080;28;20382;-80
2024/03/27 09:00:45;;;;;;;4.03;3.63;;;;;;;;;;5099430;28;20429;-79
2024/03/27 09:03:11;;;;;;;4.57;3.90;;;;;;;;;;5098528;28;20851;-79
2024/03/27 09:05:37;;;;;;;4.28;3.88;;;;;;;;;;5098752;28;20427;-79
2024/03/27 09:08:03;;;;;;;3.63;3.33;;;;;;;;;;5098531;28;20381;-79
2024/03/27 09:10:29;;;;;;;4.90;3.40;;;;;;;;;;5097712;28;20386;-80
2024/03/27 09:12:55;;;;;;;3.58;3.13;;;;;;;;;;5099428;28;20465;-80
2024/03/27 09:15:21;;;;;;;3.90;3.22;;;;;;;;;;5098585;28;20439;-80
2024/03/27 09:17:47;;;;;;;3.60;3.30;;;;;;;;;;5098297;28;20459;-80
2024/03/27 09:20:13;;;;;;;3.53;3.03;;;;;;;;;;5098739;28;20875;-80
2024/03/27 09:22:39;;;;;;;4.35;2.70;;;;;;;;;;5097575;28;20402;-80
2024/03/27 09:25:06;;;;;;;4.30;2.30;;;;;;;;;;5097520;28;20370;-80
2024/03/27 09:27:35;;;;;;;2.25;1.75;;;;;;;;;;5096608;28;20418;-80
2024/03/27 09:30:01;;;;;;;1.77;1.58;;;;;;;;;;5097690;28;20415;-80
2024/03/27 09:32:27;;;;;;;2.33;1.57;;;;;;;;;;5097995;28;20418;-80
2024/03/27 09:34:55;;;;;;;2.72;1.80;;;;;;;;;;5097917;28;20389;-79
2024/03/27 09:37:21;;;;;;;1.65;1.52;;;;;;;;;;5098253;28;20374;-80
2024/03/27 09:39:47;;;;;;;2.73;1.60;;;;;;;;;;5097962;28;20398;-80
2024/03/27 09:42:13;;;;;;;2.85;1.70;;;;;;;;;;5098481;28;20923;-80
2024/03/27 09:44:39;;;;;;;1.40;1.30;;;;;;;;;;5097643;28;20378;-80
2024/03/27 09:47:06;;;;;;;1.80;1.30;;;;;;;;;;5097496;28;20381;-80
2024/03/27 09:49:32;;;;;;;1.42;1.20;;;;;;;;;;5097988;28;20842;-79
2024/03/27 09:51:58;;;;;;;1.40;1.30;;;;;;;;;;5097912;28;20473;-79
2024/03/27 09:54:28;;;;;;;2.60;1.30;;;;;;;;;;5097283;28;20394;-79
2024/03/27 09:56:54;;;;;;;1.50;1.40;;;;;;;;;;5097592;28;20938;-79
2024/03/27 09:59:20;;;;;;;2.05;1.65;;;;;;;;;;5095614;28;20768;-80
2024/03/27 10:01:56;;;;;;;2.00;1.25;;;;;;;;;;5096235;28;20365;-80
2024/03/27 10:04:23;;;;;;;1.48;1.17;;;;;;;;;;5096261;28;20418;-79
2024/03/27 10:06:50;;;;;;;1.42;1.02;;;;;;;;;;5097167;28;20370;-79
2024/03/27 10:09:16;;;;;;;1.40;1.30;;;;;;;;;;5098151;28;20425;-79
2024/03/27 10:11:42;;;;;;;3.17;1.30;;;;;;;;;;5101353;28;20374;-79
2024/03/27 10:14:08;;;;;;;1.85;1.20;;;;;;;;;;5101363;28;20382;-79
2024/03/27 10:16:34;;;;;;;1.60;1.30;;;;;;;;;;5101903;28;20394;-79
2024/03/27 10:19:00;;;;;;;2.55;1.65;;;;;;;;;;5101860;28;20405;-79
2024/03/27 10:21:26;;;;;;;1.50;1.40;;;;;;;;;;5101608;28;20366;-79
2024/03/27 10:23:52;;;;;;;3.55;0.95;;;;;;;;;;5101522;28;20423;-79
2024/03/27 10:26:18;;;;;;;1.65;1.40;;;;;;;;;;5100714;28;20454;-79
2024/03/27 10:28:44;;;;;;;1.50;1.40;;;;;;;;;;5100573;28;20452;-79
2024/03/27 10:31:10;;;;;;;2.67;1.40;;;;;;;;;;5100625;28;20389;-79
2024/03/27 10:33:37;;;;;;;2.55;1.17;;;;;;;;;;5099826;28;20386;-79
2024/03/27 10:36:05;;;;;;;1.30;1.20;;;;;;;;;;5100078;28;20377;-81
2024/03/27 10:38:31;;;;;;;2.10;1.40;;;;;;;;;;5099772;28;20384;-80
2024/03/27 10:40:58;;;;;;;1.40;1.30;;;;;;;;;;5099843;28;20697;-79
2024/03/27 10:43:26;;;;;;;2.23;1.40;;;;;;;;;;5099458;28;20459;-79
2024/03/27 10:45:55;;;;;;;1.90;1.45;;;;;;;;;;5099827;28;20389;-80
2024/03/27 10:48:21;;;;;;;2.80;1.17;;;;;;;;;;5099861;28;20370;-80
2024/03/27 10:50:48;;;;;;;1.90;1.25;;;;;;;;;;5100303;28;20864;-80
2024/03/27 10:53:15;;;;;;;2.50;1.30;;;;;;;;;;5100389;28;20400;-80
2024/03/27 10:55:41;;;;;;;1.55;1.27;;;;;;;;;;5100147;28;20442;-80
2024/03/27 10:58:11;;;;;;;1.80;1.15;;;;;;;;;;5098721;28;20390;-79
2024/03/27 11:00:39;;;;;;;1.67;1.38;;;;;;;;;;5099481;28;20397;-79
2024/03/27 11:03:05;;;;;;;2.17;1.20;;;;;;;;;;5099588;28;20407;-80
2024/03/27 11:05:31;;;;;;;2.23;1.20;;;;;;;;;;5099159;28;20374;-80
2024/03/27 11:07:59;;;;;;;1.50;1.23;;;;;;;;;;5099358;28;20373;-80
2024/03/27 11:10:26;;;;;;;1.13;1.02;;;;;;;;;;5099255;28;20875;-80
2024/03/27 11:12:52;;;;;;;1.80;1.00;;;;;;;;;;5099504;28;20405;-80
2024/03/27 11:15:19;;;;;;;2.30;1.25;;;;;;;;;;5098057;28;20374;-80
2024/03/27 11:17:51;;;;;;;0.88;0.88;;;;;;;;;;5098302;28;20382;-80
2024/03/27 11:20:17;;;;;;;1.20;1.10;;;;;;;;;;5096790;28;20916;-79
2024/03/27 11:22:44;;;;;;;1.30;0.90;;;;;;;;;;5097690;28;20437;-80
2024/03/27 11:25:10;;;;;;;1.42;1.10;;;;;;;;;;5097468;28;20382;-80
2024/03/27 11:27:37;;;;;;;2.08;1.17;;;;;;;;;;5096689;28;20866;-79
2024/03/27 11:30:03;;;;;;;1.70;1.10;;;;;;;;;;5097436;28;20382;-79
2024/03/27 11:32:49;;;;;;;2.30;1.02;;;;;;;;;;5097694;28;20986;-80
2024/03/27 11:35:15;;;;;;;1.48;1.00;;;;;;;;;;5097164;28;20370;-80
2024/03/27 11:37:42;;;;;;;2.03;1.02;;;;;;;;;;5097046;28;20843;-79
2024/03/27 11:40:08;;;;;;;0.70;0.70;;;;;;;;;;5096950;28;20406;-80
2024/03/27 11:42:38;;;;;;;0.95;0.68;;;;;;;;;;5097038;28;20783;-80
2024/03/27 11:45:05;;;;;;;1.20;0.70;;;;;;;;;;5097194;28;20860;-80
2024/03/27 11:47:31;;;;;;;1.90;1.00;;;;;;;;;;5097025;28;20507;-79
2024/03/27 11:49:57;;;;;;;1.55;0.60;;;;;;;;;;5097615;28;20390;-80
2024/03/27 11:52:24;;;;;;;1.23;0.60;;;;;;;;;;5097023;28;20374;-80
2024/03/27 11:54:57;;;;;;;0.50;0.50;;;;;;;;;;5096990;28;20464;-79
2024/03/27 11:57:23;;;;;;;1.65;0.60;;;;;;;;;;5096834;28;20531;-79
2024/03/27 11:59:52;;;;;;;0.43;0.40;;;;;;;;;;5096418;28;20410;-80
2024/03/27 12:02:18;;;;;;;0.80;0.50;;;;;;;;;;5097537;28;20840;-79
2024/03/27 12:04:44;;;;;;;0.60;0.50;;;;;;;;;;5096286;28;20382;-80
2024/03/27 12:07:10;;;;;;;1.30;0.55;;;;;;;;;;5096837;28;20416;-80
2024/03/27 12:09:37;;;;;;;1.67;0.40;;;;;;;;;;5079357;28;20374;-79
2024/03/27 12:12:03;;;;;;;0.70;0.30;;;;;;;;;;5097345;28;20383;-79
2024/03/27 12:14:31;;;;;;;0.38;0.38;;;;;;;;;;5097234;28;20386;-79
2024/03/27 12:16:57;;;;;;;0.65;0.40;;;;;;;;;;5097575;28;20401;-79
2024/03/27 12:19:23;;;;;;;0.30;0.30;;;;;;;;;;5098044;28;20994;-79
2024/03/27 12:21:50;;;;;;;0.40;0.40;;;;;;;;;;5097860;28;20389;-79
2024/03/27 12:24:16;;;;;;;0.50;0.50;;;;;;;;;;5097441;28;20778;-79
2024/03/27 12:26:42;;;;;;;1.00;0.50;;;;;;;;;;5096808;28;20367;-79
2024/03/27 12:29:10;;;;;;;0.93;0.65;;;;;;;;;;5096267;28;20378;-79
2024/03/27 12:31:36;;;;;;;1.67;0.80;;;;;;;;;;5095906;28;20397;-79
2024/03/27 12:34:02;;;;;;;2.72;2.30;;;;;;;;;;5097236;28;20725;-79
2024/03/27 12:36:30;;;;;;;2.65;1.55;;;;;;;;;;5096305;28;20417;-79
2024/03/27 12:38:56;;;;;;;0.30;0.30;;;;;;;;;;5096215;28;20902;-79
2024/03/27 12:41:21;;;;;;;0.75;0.20;;;;;;;;;;5096547;28;20411;-79
2024/03/27 12:43:48;;;;;;;1.17;0.20;;;;;;;;;;5096638;28;20452;-79
2024/03/27 12:46:14;;;;;;;0.13;0.13;;;;;;;;;;5078539;28;20409;-79
2024/03/27 12:48:40;;;;;;;0.20;0.20;;;;;;;;;;5096470;28;20378;-79
2024/03/27 12:51:06;;;;;;;2.50;0.30;;;;;;;;;;5096822;28;20716;-79
2024/03/27 12:53:32;;;;;;;0.40;0.20;;;;;;;;;;5096452;28;20400;-79
2024/03/27 12:55:58;;;;;;;1.00;0.40;;;;;;;;;;5095948;28;20843;-79
2024/03/27 12:58:24;;;;;;;0.40;0.40;;;;;;;;;;5095485;28;20381;-78
2024/03/27 13:00:50;;;;;;;0.70;0.40;;;;;;;;;;5095753;28;20405;-79
2024/03/27 13:03:16;;;;;;;1.00;0.50;;;;;;;;;;5095783;28;20374;-79
2024/03/27 13:05:42;;;;;;;0.95;0.40;;;;;;;;;;5096185;28;20843;-79
2024/03/27 13:08:08;;;;;;;1.20;0.40;;;;;;;;;;5095206;28;20428;-79
2024/03/27 13:10:36;;;;;;;0.38;0.30;;;;;;;;;;5095620;28;20778;-79
2024/03/27 13:13:02;;;;;;;0.97;0.40;;;;;;;;;;5096099;28;20824;-79
2024/03/27 13:15:28;;;;;;;0.68;0.50;;;;;;;;;;5096165;28;20469;-78
2024/03/27 13:17:54;;;;;;;1.00;0.60;;;;;;;;;;5095412;28;20871;-79
2024/03/27 13:20:21;;;;;;;0.43;0.40;;;;;;;;;;5094222;28;20420;-78
2024/03/27 13:22:47;;;;;;;0.57;0.40;;;;;;;;;;5094814;28;20428;-78
2024/03/27 13:25:13;;;;;;;1.10;0.40;;;;;;;;;;5094952;28;20862;-78
2024/03/27 13:27:39;;;;;;;0.40;0.20;;;;;;;;;;5095180;28;20374;-78
2024/03/27 13:30:06;;;;;;;2.00;0.30;;;;;;;;;;5095031;28;20370;-78
2024/03/27 13:32:32;;;;;;;0.30;0.30;;;;;;;;;;5094385;28;20409;-79
2024/03/27 13:34:58;;;;;;;0.30;0.30;;;;;;;;;;5094786;28;20743;-79
2024/03/27 13:37:24;;;;;;;0.98;0.70;;;;;;;;;;5094304;28;20453;-79
2024/03/27 13:39:50;;;;;;;0.40;0.30;;;;;;;;;;5094474;28;20398;-79
2024/03/27 13:42:16;;;;;;;0.95;0.35;;;;;;;;;;5095217;28;20888;-79
2024/03/27 13:44:42;;;;;;;0.30;0.30;;;;;;;;;;5093527;28;20378;-79
2024/03/27 13:47:08;;;;;;;1.00;0.30;;;;;;;;;;5094368;28;20440;-79
2024/03/27 13:49:34;;;;;;;0.30;0.30;;;;;;;;;;5094703;28;20504;-79
2024/03/27 13:52:00;;;;;;;2.50;0.38;;;;;;;;;;5094164;28;20871;-79
2024/03/27 13:54:27;;;;;;;0.80;0.20;;;;;;;;;;5093749;28;20519;-79
2024/03/27 13:56:53;;;;;;;0.20;0.20;;;;;;;;;;5093590;28;20420;-79
2024/03/27 13:59:18;;;;;;;0.20;0.20;;;;;;;;;;5094147;28;20512;-79
2024/03/27 14:01:44;;;;;;;0.20;0.20;;;;;;;;;;5094655;28;20370;-79
2024/03/27 14:04:13;;;;;;;1.00;0.20;;;;;;;;;;5094336;28;20382;-79
2024/03/27 14:06:39;;;;;;;0.50;0.40;;;;;;;;;;5075883;28;20393;-79
2024/03/27 14:09:06;;;;;;;0.55;0.30;;;;;;;;;;5093735;28;20386;-79
2024/03/27 14:11:32;;;;;;;1.87;0.40;;;;;;;;;;5094368;28;20928;-80
2024/03/27 14:14:00;;;;;;;0.80;0.40;;;;;;;;;;5093951;28;20386;-80
2024/03/27 14:16:27;;;;;;;0.40;0.40;;;;;;;;;;5075904;28;20386;-79
2024/03/27 14:18:53;;;;;;;0.90;0.40;;;;;;;;;;5093358;28;20464;-79
2024/03/27 14:21:19;;;;;;;0.30;0.30;;;;;;;;;;5093618;28;20382;-79
2024/03/27 14:23:45;;;;;;;0.20;0.20;;;;;;;;;;5093754;28;20393;-79
2024/03/27 14:26:12;;;;;;;0.50;0.20;;;;;;;;;;5092508;28;20836;-79
2024/03/27 14:28:37;;;;;;;0.80;0.52;;;;;;;;;;5091850;28;20392;-79
2024/03/27 14:31:04;;;;;;;0.60;0.40;;;;;;;;;;5091388;28;20385;-79
2024/03/27 14:33:31;;;;;;;0.25;0.25;;;;;;;;;;5092278;28;20385;-80
2024/03/27 14:35:57;;;;;;;0.30;0.20;;;;;;;;;;5090961;28;20621;-79
2024/03/27 14:38:23;;;;;;;0.40;0.30;;;;;;;;;;5093995;28;20445;-80